Accueil
METAR-TAF:

METAR-TAF

Aéroports :

Schenectady County Airport

Schenectady, New York, États-Unis

latitude: 42-51N, longitude: 073-56W, altitude: 115 m

Observation

Le bulletin a été fait il y a 6 heures et 28 minutes, à 01:46 UTC
Vent 8 kt de ouest/nord-ouest
Température 18°C
Humidité 52%
Pression 1016 hPa
Visibilité: 24.1 km
Ciel couvert à une hauteur de 8500 ft

METAR: KSCH 210146Z 29008KT 15SM OVC085 18/08 A2999 RMK LAST

Heure: 04:14 (08:14 UTC)


TAF: absent

Observations et prévisions météorologiques de plus de 4000 aéroports (messages METAR et TAF).

Les stations disponibles sont représentées par des disques jaunes et rouges sur la carte.

Passer la souris dessus pour voir le nom de la station.

Cliquer dessus pour voir les observations et prévisions météorologiques.

Pour changer de carte: cliquez sur les boutons verts avec une croix noire pour zoomer, sur le bouton vert avec un tiret pour effectuer un zoom arrière, ou sur les flèches vertes pour les cartes adjacentes.


METAR-TAF: